Time;durP1;ratioP1;P1;durP2;ratioP2;P2;SDS_P1;SDS_P2;PMS_P1;PMS_P2;Temp;Humidity;BMP_temperature;BMP_pressure;BME280_temperature;BME280_humidity;BME280_pressure;Samples;Min_cycle;Max_cycle;Signal;HPM_P1;HPM_P2
2023/11/22 00:01:29;;;;;;;80.20;47.60;;;;;;;-0.04;96.67;100856.77;129386;1273;114757;-59
2023/11/22 00:04:31;;;;;;;80.00;47.30;;;;;;;-0.05;96.91;100856.41;129417;1261;114792;-59
2023/11/22 00:07:33;;;;;;;79.70;46.00;;;;;;;-0.07;96.59;100857.10;129352;1261;114921;-61
2023/11/22 00:10:35;;;;;;;87.10;46.70;;;;;;;-0.08;96.75;100857.80;129473;1264;114747;-64
2023/11/22 00:13:37;;;;;;;83.00;47.20;;;;;;;-0.08;96.98;100863.08;129452;1264;114804;-62
2023/11/22 00:16:40;;;;;;;76.00;44.20;;;;;;;-0.07;96.96;100859.73;129410;1282;114738;-59
2023/11/22 00:19:42;;;;;;;78.60;44.50;;;;;;;-0.09;96.86;100860.45;129252;1264;128149;-58
2023/11/22 00:22:45;;;;;;;83.10;44.80;;;;;;;-0.10;96.91;100867.64;129338;1272;114780;-60
2023/11/22 00:25:46;;;;;;;86.50;49.00;;;;;;;-0.08;97.27;100875.18;129460;1273;114790;-63
2023/11/22 00:28:49;;;;;;;90.10;50.30;;;;;;;-0.08;97.02;100876.77;129416;1260;114747;-62
2023/11/22 00:31:51;;;;;;;83.70;47.00;;;;;;;-0.07;97.10;100880.46;129287;1266;114814;-60
2023/11/22 00:34:53;;;;;;;75.40;40.60;;;;;;;-0.07;97.03;100887.31;129358;1264;114801;-59
2023/11/22 00:37:55;;;;;;;70.60;41.30;;;;;;;-0.10;96.76;100899.42;129575;1264;114721;-58
2023/11/22 00:40:56;;;;;;;70.40;40.90;;;;;;;-0.12;96.83;100914.33;129374;1266;128491;-62
2023/11/22 00:43:59;;;;;;;68.90;40.00;;;;;;;-0.14;96.79;100919.05;129323;1264;114727;-58
2023/11/22 00:47:01;;;;;;;64.40;38.40;;;;;;;-0.19;96.33;100925.54;129565;1260;114806;-61
2023/11/22 00:50:06;;;;;;;64.00;36.20;;;;;;;-0.25;96.37;100930.94;129348;1261;114736;-59
2023/11/22 00:53:09;;;;;;;67.40;38.80;;;;;;;-0.29;96.56;100931.61;129211;1282;115444;-59
2023/11/22 00:56:12;;;;;;;67.70;40.90;;;;;;;-0.31;96.60;100922.48;129406;1273;115279;-58
2023/11/22 00:59:14;;;;;;;68.00;39.70;;;;;;;-0.32;96.79;100925.30;129455;1273;114815;-61
2023/11/22 01:02:16;;;;;;;65.10;38.00;;;;;;;-0.33;96.66;100930.20;129410;1282;114771;-58
2023/11/22 01:05:18;;;;;;;63.70;38.10;;;;;;;-0.37;96.44;100930.89;129550;1273;114753;-59
2023/11/22 01:08:20;;;;;;;65.90;39.30;;;;;;;-0.39;96.62;100927.35;129091;1266;114966;-59
2023/11/22 01:11:21;;;;;;;65.10;38.30;;;;;;;-0.39;96.64;100931.05;129427;1263;114825;-58
2023/11/22 01:14:26;;;;;;;65.30;36.50;;;;;;;-0.41;96.63;100929.09;129465;1264;114745;-58
2023/11/22 01:17:27;;;;;;;51.40;28.50;;;;;;;-0.43;96.71;100930.33;129439;1282;114696;-58
2023/11/22 01:20:29;;;;;;;64.10;36.30;;;;;;;-0.46;96.29;100930.48;129348;1261;114728;-59
2023/11/22 01:23:31;;;;;;;64.10;37.10;;;;;;;-0.49;96.32;100933.27;129493;1264;114787;-60
2023/11/22 01:26:34;;;;;;;69.60;38.20;;;;;;;-0.52;96.33;100929.91;129558;1264;114657;-58
2023/11/22 01:29:36;;;;;;;55.70;33.50;;;;;;;-0.54;96.24;100941.66;129423;1263;114779;-59
2023/11/22 01:32:38;;;;;;;65.00;37.60;;;;;;;-0.56;96.32;100943.59;129419;1274;117382;-60
2023/11/22 01:35:41;;;;;;;59.20;34.10;;;;;;;-0.55;96.41;100940.60;129385;1282;114841;-58
2023/11/22 01:38:44;;;;;;;60.10;35.30;;;;;;;-0.56;96.29;100942.70;129463;1282;114851;-58
2023/11/22 01:41:49;;;;;;;65.90;35.40;;;;;;;-0.58;96.27;100941.64;129466;1271;114717;-59
2023/11/22 01:44:52;;;;;;;67.10;36.00;;;;;;;-0.59;96.19;100941.98;129240;1267;116422;-60
2023/11/22 01:47:55;;;;;;;52.60;32.20;;;;;;;-0.59;96.24;100947.42;129505;1264;115215;-59
2023/11/22 01:50:57;;;;;;;58.90;33.50;;;;;;;-0.60;96.14;100946.01;129403;1263;114870;-58
2023/11/22 01:54:00;;;;;;;63.40;33.90;;;;;;;-0.60;96.21;100948.64;129494;1261;114711;-58
2023/11/22 01:57:02;;;;;;;59.10;32.00;;;;;;;-0.60;95.94;100953.38;129483;1264;114713;-59
2023/11/22 02:00:07;;;;;;;62.20;32.70;;;;;;;-0.59;96.21;100952.68;129483;1260;128719;-61
2023/11/22 02:03:09;;;;;;;55.70;31.20;;;;;;;-0.58;96.25;100956.55;129484;1264;114846;-59
2023/11/22 02:06:11;;;;;;;56.90;31.60;;;;;;;-0.55;96.28;100958.84;129447;1264;115152;-59
2023/11/22 02:09:17;;;;;;;59.20;33.40;;;;;;;-0.52;96.47;100967.83;129424;1259;114724;-59
2023/11/22 02:12:19;;;;;;;56.10;31.40;;;;;;;-0.51;96.06;100978.00;129462;1260;114725;-59
2023/11/22 02:15:21;;;;;;;57.20;31.70;;;;;;;-0.50;96.22;100984.33;129380;1264;115281;-58
2023/11/22 02:18:23;;;;;;;50.30;28.80;;;;;;;-0.49;95.96;100985.02;129482;1264;115077;-59
2023/11/22 02:21:25;;;;;;;51.70;29.70;;;;;;;-0.51;95.61;100985.02;129234;1266;127896;-59
2023/11/22 02:24:27;;;;;;;53.10;28.30;;;;;;;-0.53;95.64;100983.06;129342;1264;114694;-59
2023/11/22 02:27:29;;;;;;;49.40;28.90;;;;;;;-0.55;95.44;100995.16;129531;1264;114756;-58
2023/11/22 02:30:31;;;;;;;50.80;28.80;;;;;;;-0.55;95.43;100999.89;129365;1261;114751;-58
2023/11/22 02:33:33;;;;;;;49.10;28.40;;;;;;;-0.56;95.57;101003.39;129359;1261;114727;-59
2023/11/22 02:36:35;;;;;;;51.00;31.10;;;;;;;-0.56;95.13;101010.41;129554;1263;115237;-59
2023/11/22 02:39:52;;;;;;;52.70;28.40;;;;;;;-0.59;94.92;101008.99;129339;1282;114642;-59
2023/11/22 02:42:57;;;;;;;54.30;30.80;;;;;;;-0.60;95.01;101015.82;129233;1268;128119;-62
2023/11/22 02:45:59;;;;;;;48.10;27.50;;;;;;;-0.61;94.94;101017.94;129452;1282;114747;-61
2023/11/22 02:49:01;;;;;;;58.40;31.60;;;;;;;-0.62;94.63;101024.93;129488;1275;115406;-59
2023/11/22 02:52:05;;;;;;;46.10;27.80;;;;;;;-0.63;94.77;101028.43;129480;1259;114761;-59
2023/11/22 02:55:11;;;;;;;50.00;29.60;;;;;;;-0.65;94.24;101034.91;129226;1259;114820;-59
2023/11/22 02:58:13;;;;;;;46.60;28.10;;;;;;;-0.67;94.40;101040.34;129513;1260;114808;-59
2023/11/22 03:01:15;;;;;;;52.10;31.00;;;;;;;-0.69;94.16;101047.15;129652;1264;114715;-59
2023/11/22 03:04:17;;;;;;;57.10;33.20;;;;;;;-0.69;94.53;101045.39;129475;1260;114789;-61
2023/11/22 03:07:20;;;;;;;52.70;31.00;;;;;;;-0.65;95.05;101057.70;129602;1259;115329;-60
2023/11/22 03:10:22;;;;;;;48.60;29.80;;;;;;;-0.61;94.94;101062.65;129504;1264;114827;-59
2023/11/22 03:13:27;;;;;;;52.50;30.40;;;;;;;-0.59;94.86;101068.99;129467;1264;114781;-58
2023/11/22 03:16:30;;;;;;;63.10;32.90;;;;;;;-0.59;94.54;101076.89;129540;1261;114834;-58
2023/11/22 03:19:33;;;;;;;49.20;28.50;;;;;;;-0.58;94.62;101080.75;129423;1260;114719;-59
2023/11/22 03:22:35;;;;;;;51.80;30.60;;;;;;;-0.60;94.33;101081.09;129246;1283;115186;-59
2023/11/22 03:25:38;;;;;;;50.10;29.80;;;;;;;-0.62;94.29;101085.45;129467;1263;115187;-60
2023/11/22 03:28:40;;;;;;;54.10;33.10;;;;;;;-0.63;94.66;101095.63;129539;1279;114833;-61
2023/11/22 03:31:42;;;;;;;46.80;30.10;;;;;;;-0.62;94.42;101103.52;129407;1261;114811;-61
2023/11/22 03:34:45;;;;;;;54.00;32.40;;;;;;;-0.64;94.39;101107.37;129366;1264;114716;-58
2023/11/22 03:37:47;;;;;;;50.40;31.70;;;;;;;-0.64;94.58;101112.64;129421;1283;115318;-59
2023/11/22 03:40:49;;;;;;;42.50;26.40;;;;;;;-0.62;94.66;101112.83;129417;1263;114796;-59
2023/11/22 03:43:51;;;;;;;49.80;28.50;;;;;;;-0.64;94.56;101118.42;129061;1283;115225;-59
2023/11/22 03:46:54;;;;;;;52.70;30.10;;;;;;;-0.65;94.76;101121.56;129311;1280;114977;-59
2023/11/22 03:49:59;;;;;;;44.80;25.40;;;;;;;-0.68;94.49;101133.82;129473;1263;114685;-60
2023/11/22 03:53:01;;;;;;;43.30;27.00;;;;;;;-0.72;94.03;101134.47;129348;1264;114814;-59
2023/11/22 03:56:04;;;;;;;36.80;23.20;;;;;;;-0.75;94.11;101138.30;129351;1259;114750;-59
2023/11/22 03:59:06;;;;;;;31.90;20.90;;;;;;;-0.80;93.60;101141.94;129418;1261;114829;-59
2023/11/22 04:02:09;;;;;;;36.00;22.50;;;;;;;-0.85;93.54;101147.16;129496;1282;115161;-59
2023/11/22 04:05:13;;;;;;;37.00;21.90;;;;;;;-0.87;93.46;101146.95;129473;1261;114727;-59
2023/11/22 04:08:16;;;;;;;35.60;20.60;;;;;;;-0.90;93.53;101144.98;129360;1265;114746;-61
2023/11/22 04:11:18;;;;;;;37.40;19.60;;;;;;;-0.92;93.54;101148.48;129551;1262;115248;-65
2023/11/22 04:14:21;;;;;;;31.30;17.90;;;;;;;-0.94;93.40;101151.27;129564;1264;114991;-59
2023/11/22 04:17:23;;;;;;;34.40;19.70;;;;;;;-0.97;92.95;101158.58;129240;1282;128642;-61
2023/11/22 04:20:25;;;;;;;32.20;17.20;;;;;;;-1.00;93.08;101160.65;129527;1260;114838;-60
2023/11/22 04:23:27;;;;;;;34.70;19.70;;;;;;;-1.03;92.87;101151.15;129380;1259;114757;-60
2023/11/22 04:26:29;;;;;;;40.90;22.30;;;;;;;-1.06;92.45;101154.96;129376;1266;115411;-64
2023/11/22 04:29:31;;;;;;;33.50;19.10;;;;;;;-1.12;91.92;101158.23;129481;1260;115239;-62
2023/11/22 04:32:33;;;;;;;36.10;18.50;;;;;;;-1.15;92.14;101161.16;129517;1259;115231;-65
2023/11/22 04:35:37;;;;;;;35.00;18.40;;;;;;;-1.17;92.46;101171.31;129416;1265;114927;-65
2023/11/22 04:38:39;;;;;;;30.80;16.70;;;;;;;-1.19;92.12;101174.44;129521;1282;128653;-63
2023/11/22 04:41:41;;;;;;;29.50;16.80;;;;;;;-1.21;92.45;101179.33;129480;1282;114862;-60
2023/11/22 04:44:43;;;;;;;32.60;17.80;;;;;;;-1.19;92.64;101187.41;129412;1282;114808;-60
2023/11/22 04:47:45;;;;;;;33.00;18.60;;;;;;;-1.17;92.63;101191.13;129310;1266;114875;-65
2023/11/22 04:50:47;;;;;;;35.40;19.00;;;;;;;-1.14;92.91;101193.27;129480;1282;114821;-60
2023/11/22 04:53:49;;;;;;;29.40;17.60;;;;;;;-1.13;92.93;101192.58;129540;1260;115248;-62
2023/11/22 04:56:51;;;;;;;30.40;18.30;;;;;;;-1.11;92.73;101192.41;129374;1263;114776;-63
2023/11/22 04:59:53;;;;;;;36.50;20.00;;;;;;;-1.10;93.03;101197.70;129463;1264;114800;-60
2023/11/22 05:02:55;;;;;;;31.60;19.30;;;;;;;-1.11;92.41;101186.29;129523;1260;114754;-61
2023/11/22 05:05:58;;;;;;;34.60;19.20;;;;;;;-1.11;92.57;101184.70;129539;1262;115219;-59
2023/11/22 05:09:00;;;;;;;37.60;20.50;;;;;;;-1.12;92.86;101192.23;129469;1264;114798;-62
2023/11/22 05:12:03;;;;;;;34.70;20.80;;;;;;;-1.11;92.88;101202.07;129392;1264;115087;-61
2023/11/22 05:15:06;;;;;;;37.10;21.00;;;;;;;-1.08;93.07;101212.80;129462;1260;114789;-61
2023/11/22 05:18:08;;;;;;;31.70;19.60;;;;;;;-1.05;93.23;101224.40;129347;1259;114883;-62
2023/11/22 05:21:11;;;;;;;37.40;20.80;;;;;;;-1.03;93.03;101231.27;129482;1260;114817;-61
2023/11/22 05:24:15;;;;;;;35.60;21.60;;;;;;;-1.02;93.19;101250.03;129517;1259;115733;-59
2023/11/22 05:27:17;;;;;;;50.60;22.70;;;;;;;-1.00;93.09;101254.45;129193;1267;115141;-60
2023/11/22 05:30:20;;;;;;;39.40;22.80;;;;;;;-0.97;93.13;101262.39;129461;1263;115426;-59
2023/11/22 05:33:26;;;;;;;40.90;23.40;;;;;;;-0.93;93.48;101263.48;129538;1262;115170;-60
2023/11/22 05:36:29;;;;;;;42.20;22.90;;;;;;;-0.88;93.53;101264.59;129464;1259;114790;-60
2023/11/22 05:39:31;;;;;;;43.00;24.90;;;;;;;-0.84;93.90;101274.48;129424;1261;114721;-60
2023/11/22 05:42:37;;;;;;;38.30;22.30;;;;;;;-0.81;93.67;101276.79;129499;1263;114710;-60
2023/11/22 05:45:39;;;;;;;46.70;24.10;;;;;;;-0.79;93.71;101292.25;129240;1259;114854;-60
2023/11/22 05:48:41;;;;;;;43.00;23.20;;;;;;;-0.75;93.67;101302.65;129471;1264;114688;-63
2023/11/22 05:51:43;;;;;;;44.60;26.20;;;;;;;-0.71;94.08;101301.30;129405;1260;115838;-64
2023/11/22 05:54:45;;;;;;;52.80;30.70;;;;;;;-0.70;93.64;101310.62;129460;1264;114762;-64
2023/11/22 05:57:47;;;;;;;38.20;21.20;;;;;;;-0.68;93.53;101312.39;129407;1264;114782;-64
2023/11/22 06:00:50;;;;;;;38.20;21.40;;;;;;;-0.68;93.56;101320.64;129465;1260;115199;-60
2023/11/22 06:03:52;;;;;;;44.60;23.10;;;;;;;-0.68;93.19;101326.61;129172;1269;115253;-61
2023/11/22 06:06:54;;;;;;;41.10;22.00;;;;;;;-0.69;93.48;101338.70;129481;1275;114701;-60
2023/11/22 06:09:57;;;;;;;44.80;24.50;;;;;;;-0.66;93.71;101343.46;129351;1282;114793;-60
2023/11/22 06:12:59;;;;;;;38.50;21.40;;;;;;;-0.67;93.04;101339.42;129537;1263;115200;-62
2023/11/22 06:16:01;;;;;;;38.00;21.00;;;;;;;-0.70;92.80;101352.20;129205;1261;114828;-61
2023/11/22 06:19:03;;;;;;;39.10;21.00;;;;;;;-0.73;92.73;101360.38;129540;1264;114790;-60
2023/11/22 06:22:06;;;;;;;36.80;16.60;;;;;;;-0.75;92.59;101357.38;129495;1264;115300;-60
2023/11/22 06:25:10;;;;;;;33.50;16.90;;;;;;;-0.80;91.94;101348.36;129216;1267;115206;-60
2023/11/22 06:28:12;;;;;;;31.00;15.50;;;;;;;-0.83;91.89;101351.49;129442;1280;114788;-59
2023/11/22 06:31:15;;;;;;;32.90;16.20;;;;;;;-0.84;92.24;101349.19;129361;1259;114765;-60
2023/11/22 06:34:17;;;;;;;31.40;16.40;;;;;;;-0.84;91.98;101347.42;129438;1282;114796;-60
2023/11/22 06:37:19;;;;;;;32.40;16.50;;;;;;;-0.87;91.96;101360.72;129412;1264;115544;-62
2023/11/22 06:40:21;;;;;;;31.00;16.00;;;;;;;-0.88;91.89;101369.66;129074;1268;128258;-59
2023/11/22 06:43:23;;;;;;;43.80;22.50;;;;;;;-0.88;92.02;101370.52;129453;1264;114998;-59
2023/11/22 06:46:25;;;;;;;209.90;99.20;;;;;;;-0.85;92.39;101367.58;129521;1274;114817;-59
2023/11/22 06:49:28;;;;;;;34.40;18.50;;;;;;;-0.84;92.21;101363.91;129330;1260;115328;-59
2023/11/22 06:52:30;;;;;;;32.50;16.60;;;;;;;-0.84;91.96;101374.27;129392;1259;114793;-59
2023/11/22 06:55:33;;;;;;;30.30;15.30;;;;;;;-0.84;91.85;101380.41;129464;1263;114786;-59
2023/11/22 06:58:35;;;;;;;31.70;16.50;;;;;;;-0.84;91.84;101383.91;129358;1282;115108;-59
2023/11/22 07:01:37;;;;;;;37.40;16.60;;;;;;;-0.82;91.99;101391.48;129455;1282;114947;-59
2023/11/22 07:04:39;;;;;;;39.40;16.60;;;;;;;-0.78;91.82;101401.20;129450;1265;114726;-59
2023/11/22 07:07:41;;;;;;;33.70;16.90;;;;;;;-0.76;91.74;101403.68;129259;1266;116373;-59
2023/11/22 07:10:44;;;;;;;25.60;15.40;;;;;;;-0.71;92.10;101404.09;129400;1264;114918;-59
2023/11/22 07:13:47;;;;;;;33.80;17.20;;;;;;;-0.68;91.66;101394.85;129396;1259;115236;-59
2023/11/22 07:16:50;;;;;;;45.50;22.00;;;;;;;-0.65;91.46;101399.44;129398;1264;114813;-59
2023/11/22 07:19:53;;;;;;;37.40;19.70;;;;;;;-0.62;91.53;101397.55;129411;1263;114798;-58
2023/11/22 07:22:57;;;;;;;31.60;16.70;;;;;;;-0.59;91.48;101399.70;129493;1260;115389;-59
2023/11/22 07:26:00;;;;;;;17.10;10.70;;;;;;;-0.57;91.38;101404.29;129326;1282;114822;-59
2023/11/22 07:29:02;;;;;;;30.90;16.50;;;;;;;-0.55;91.06;101407.30;129374;1264;114731;-59
2023/11/22 07:32:04;;;;;;;27.80;15.30;;;;;;;-0.54;91.00;101408.03;129413;1263;114815;-58
2023/11/22 07:35:08;;;;;;;29.60;16.80;;;;;;;-0.49;91.39;101401.25;129223;1260;116281;-59
2023/11/22 07:38:11;;;;;;;25.10;14.70;;;;;;;-0.43;91.44;101398.52;129347;1265;114865;-59
2023/11/22 07:41:15;;;;;;;27.40;17.60;;;;;;;-0.41;90.85;101399.41;129428;1263;115247;-60
2023/11/22 07:44:17;;;;;;;22.30;11.50;;;;;;;-0.37;91.08;101400.70;129453;1263;114688;-59
2023/11/22 07:47:19;;;;;;;31.80;18.10;;;;;;;-0.33;91.11;101399.70;129528;1263;114735;-59
2023/11/22 07:50:24;;;;;;;32.80;16.70;;;;;;;-0.26;91.09;101407.86;129459;1264;114837;-59
2023/11/22 07:53:29;;;;;;;31.50;17.00;;;;;;;-0.21;90.74;101415.84;129302;1264;114907;-58
2023/11/22 07:56:32;;;;;;;;;;;;;;;-0.19;90.56;101427.63;129363;1282;115051;-59
2023/11/22 07:59:34;;;;;;;28.00;13.10;;;;;;;-0.19;90.27;101433.58;129575;1282;127909;-59
2023/11/22 08:02:38;;;;;;;23.60;12.00;;;;;;;-0.19;90.34;101442.90;129472;1264;114785;-59
2023/11/22 08:05:40;;;;;;;23.80;12.10;;;;;;;-0.18;90.24;101446.60;129421;1265;114721;-58
2023/11/22 08:08:45;;;;;;;21.10;12.10;;;;;;;-0.16;90.33;101458.04;129501;1282;114754;-58
2023/11/22 08:11:47;;;;;;;23.60;15.00;;;;;;;-0.10;90.76;101468.83;129443;1263;114976;-59
2023/11/22 08:14:49;;;;;;;31.80;18.00;;;;;;;-0.06;90.97;101470.11;129453;1265;115164;-58
2023/11/22 08:17:51;;;;;;;31.70;19.30;;;;;;;-0.02;91.07;101476.84;129627;1265;114739;-58
2023/11/22 08:20:53;;;;;;;31.50;19.50;;;;;;;0.04;91.37;101478.31;129504;1262;115154;-58
2023/11/22 08:23:55;;;;;;;33.80;20.60;;;;;;;0.09;91.11;101486.80;129437;1264;114853;-59
2023/11/22 08:26:58;;;;;;;30.50;20.40;;;;;;;0.12;91.00;101494.92;129597;1261;114808;-58
2023/11/22 08:30:04;;;;;;;34.80;20.40;;;;;;;0.16;90.88;101499.54;129562;1263;114723;-58
2023/11/22 08:33:07;;;;;;;34.70;19.80;;;;;;;0.15;90.63;101496.02;129492;1282;115091;-59
2023/11/22 08:36:09;;;;;;;38.70;22.40;;;;;;;0.11;90.50;101488.76;129407;1260;115091;-59
2023/11/22 08:39:11;;;;;;;34.00;20.70;;;;;;;0.02;90.11;101494.45;129477;1259;115246;-58
2023/11/22 08:42:14;;;;;;;33.30;20.10;;;;;;;-0.05;89.86;101485.05;129425;1259;115276;-58
2023/11/22 08:45:16;;;;;;;34.20;21.50;;;;;;;-0.08;90.09;101474.47;129501;1265;114719;-58
2023/11/22 08:48:18;;;;;;;37.40;20.70;;;;;;;-0.08;90.17;101463.23;129549;1263;114728;-59
2023/11/22 08:51:21;;;;;;;35.90;21.90;;;;;;;-0.06;90.17;101465.00;129684;1263;114751;-58
2023/11/22 08:54:23;;;;;;;35.30;19.80;;;;;;;-0.07;89.67;101454.83;129347;1282;114701;-59
2023/11/22 08:57:25;;;;;;;32.50;18.60;;;;;;;-0.12;88.29;101455.10;126719;1264;3805169;-59
2023/11/22 09:00:32;;;;;;;26.60;17.00;;;;;;;-0.16;88.41;101455.77;129549;1264;114784;-58
2023/11/22 09:03:34;;;;;;;37.90;21.60;;;;;;;-0.15;88.54;101458.92;129436;1282;115180;-58
2023/11/22 09:06:36;;;;;;;32.70;19.70;;;;;;;-0.10;88.96;101476.73;129514;1275;114741;-59
2023/11/22 09:09:41;;;;;;;27.50;17.40;;;;;;;-0.03;89.00;101485.08;129457;1264;114699;-58
2023/11/22 09:12:43;;;;;;;34.10;20.90;;;;;;;0.01;88.77;101475.98;129428;1264;114786;-58
2023/11/22 09:15:46;;;;;;;26.80;17.50;;;;;;;0.01;88.82;101471.77;129417;1263;115149;-58
2023/11/22 09:18:48;;;;;;;29.40;18.80;;;;;;;-0.04;88.18;101468.73;129560;1264;114727;-58
2023/11/22 09:21:51;;;;;;;36.20;22.60;;;;;;;-0.10;88.01;101465.86;129376;1282;115221;-59
2023/11/22 09:24:53;;;;;;;30.50;19.50;;;;;;;-0.13;88.23;101474.58;129416;1263;114774;-58
2023/11/22 09:27:58;;;;;;;32.40;20.70;;;;;;;-0.12;88.53;101476.00;129431;1264;114713;-60
2023/11/22 09:31:05;;;;;;;31.20;18.30;;;;;;;-0.08;88.54;101470.08;129413;1266;114914;-60
2023/11/22 09:34:09;;;;;;;28.10;18.30;;;;;;;-0.04;88.17;101476.45;129269;1282;128513;-60
2023/11/22 09:37:11;;;;;;;32.10;19.80;;;;;;;-0.03;88.22;101466.99;129346;1282;115242;-59
2023/11/22 09:40:17;;;;;;;47.90;23.00;;;;;;;0.02;88.31;101451.94;129440;1280;114706;-60
2023/11/22 09:43:20;;;;;;;44.70;22.80;;;;;;;0.07;88.05;101453.23;129223;1264;114734;-60
2023/11/22 09:46:23;;;;;;;32.50;19.20;;;;;;;0.12;88.50;101440.13;129507;1265;114812;-60
2023/11/22 09:49:29;;;;;;;32.30;18.80;;;;;;;0.15;87.61;101441.91;129479;1282;114701;-59
2023/11/22 09:52:34;;;;;;;29.40;17.70;;;;;;;0.06;86.94;101450.41;129458;1282;115343;-59
2023/11/22 09:55:37;;;;;;;24.70;13.60;;;;;;;-0.01;87.11;101458.41;129532;1282;114814;-59
2023/11/22 09:58:43;;;;;;;30.80;18.20;;;;;;;-0.02;87.59;101465.60;129493;1263;116347;-59
2023/11/22 10:01:45;;;;;;;33.40;18.90;;;;;;;-0.01;87.58;101467.71;129446;1282;115090;-58
2023/11/22 10:04:47;;;;;;;31.40;19.50;;;;;;;0.02;88.03;101465.98;129310;1259;114745;-58
2023/11/22 10:07:49;;;;;;;31.90;19.50;;;;;;;0.04;87.90;101469.88;129499;1265;114801;-59
2023/11/22 10:10:54;;;;;;;27.30;17.70;;;;;;;0.04;87.85;101474.10;129209;1282;115234;-59
2023/11/22 10:13:57;;;;;;;28.10;17.90;;;;;;;0.05;88.11;101474.46;129482;1263;114698;-59
2023/11/22 10:17:00;;;;;;;31.50;19.10;;;;;;;0.11;88.06;101466.98;129371;1264;114940;-59
2023/11/22 10:20:04;;;;;;;35.20;19.20;;;;;;;0.14;87.98;101472.11;129404;1282;114807;-59
2023/11/22 10:23:28;;;;;;;31.30;19.10;;;;;;;0.19;87.86;101475.86;129479;1265;114728;-59
2023/11/22 10:26:31;;;;;;;31.80;19.50;;;;;;;0.27;88.23;101463.30;129253;1282;114901;-59
2023/11/22 10:29:36;;;;;;;33.70;21.60;;;;;;;0.42;88.45;101460.84;129556;1265;114857;-59
2023/11/22 10:32:38;;;;;;;29.40;18.90;;;;;;;0.59;88.46;101463.84;129341;1282;114863;-59
2023/11/22 10:35:54;;;;;;;29.20;17.20;;;;;;;0.75;88.33;101469.80;129440;1281;114764;-59
2023/11/22 10:38:57;;;;;;;;;;;;;;;0.86;87.80;101484.14;129267;1267;128587;-58
2023/11/22 10:41:59;;;;;;;29.50;16.70;;;;;;;0.87;87.59;101486.44;129511;1282;115365;-59
2023/11/22 10:45:03;;;;;;;26.40;16.90;;;;;;;0.85;87.69;101496.79;129426;1275;114734;-58
2023/11/22 10:48:08;;;;;;;30.00;18.60;;;;;;;0.83;87.51;101509.09;129526;1260;114841;-59
2023/11/22 10:51:13;;;;;;;31.20;18.50;;;;;;;0.86;87.73;101518.97;129414;1266;115001;-59
2023/11/22 10:54:16;;;;;;;28.90;17.20;;;;;;;0.92;87.69;101526.23;129559;1260;128880;-59
2023/11/22 10:57:19;;;;;;;32.90;19.60;;;;;;;0.94;87.15;101534.88;129498;1264;114792;-58
2023/11/22 11:00:23;;;;;;;33.40;18.50;;;;;;;0.99;87.37;101534.94;129527;1259;114831;-59
2023/11/22 11:03:30;;;;;;;31.60;19.10;;;;;;;1.05;87.22;101537.62;129461;1259;115444;-59
2023/11/22 11:06:35;;;;;;;28.70;17.70;;;;;;;1.10;86.88;101539.08;129447;1265;114834;-59
2023/11/22 11:09:39;;;;;;;25.30;15.60;;;;;;;1.12;86.70;101541.56;129292;1267;127736;-59
2023/11/22 11:12:41;;;;;;;21.70;13.80;;;;;;;1.12;86.07;101535.58;129567;1274;115240;-59
2023/11/22 11:15:43;;;;;;;26.40;15.30;;;;;;;1.08;85.52;101525.34;129417;1264;114820;-59
2023/11/22 11:18:47;;;;;;;25.40;17.00;;;;;;;1.03;85.49;101521.42;129493;1265;114691;-59
2023/11/22 11:21:49;;;;;;;30.40;16.80;;;;;;;1.00;85.43;101518.05;129486;1282;114697;-58
2023/11/22 11:25:00;;;;;;;21.30;14.80;;;;;;;1.00;85.43;101515.06;129616;1274;114880;-58
2023/11/22 11:28:03;;;;;;;23.70;14.90;;;;;;;1.01;84.61;101503.27;129309;1268;128249;-58
2023/11/22 11:31:05;;;;;;;25.30;16.80;;;;;;;1.04;84.45;101497.15;129484;1259;115249;-59
2023/11/22 11:34:08;;;;;;;25.70;15.70;;;;;;;1.13;84.86;101501.98;129410;1265;114760;-59
2023/11/22 11:37:13;;;;;;;26.60;16.00;;;;;;;1.26;85.03;101490.84;129588;1259;114806;-58
2023/11/22 11:40:42;;;;;;;23.00;14.70;;;;;;;1.38;85.20;101498.14;129193;1265;114820;-59
2023/11/22 11:43:46;;;;;;;22.00;13.90;;;;;;;1.49;85.18;101509.48;128688;1289;114825;-59
2023/11/22 11:46:51;;;;;;;24.00;14.80;;;;;;;1.53;85.23;101503.17;129019;1269;127846;-59
2023/11/22 11:49:56;;;;;;;23.60;15.10;;;;;;;1.61;85.55;101508.16;128924;1289;115358;-59
2023/11/22 11:52:58;;;;;;;20.20;13.10;;;;;;;1.67;85.30;101513.30;129014;1270;114915;-60
2023/11/22 11:56:01;;;;;;;19.30;14.00;;;;;;;1.68;84.26;101521.08;129054;1269;114822;-59
2023/11/22 11:59:07;;;;;;;23.90;14.00;;;;;;;1.62;83.21;101530.02;129055;1268;114905;-59
2023/11/22 12:02:09;;;;;;;19.50;13.20;;;;;;;1.49;82.51;101529.73;128987;1269;128747;-59
2023/11/22 12:05:12;;;;;;;19.40;13.50;;;;;;;1.44;83.03;101529.86;128892;1271;114821;-59
2023/11/22 12:08:15;;;;;;;25.90;14.60;;;;;;;1.38;82.63;101535.27;128958;1271;114806;-60
2023/11/22 12:11:18;;;;;;;25.90;15.80;;;;;;;1.33;83.06;101533.13;128976;1271;114934;-59
2023/11/22 12:14:21;;;;;;;21.70;13.80;;;;;;;1.33;83.01;101532.60;129055;1268;114762;-59
2023/11/22 12:17:23;;;;;;;19.50;13.50;;;;;;;1.33;82.73;101542.27;128846;1271;114854;-59
2023/11/22 12:20:26;;;;;;;20.40;14.60;;;;;;;1.29;82.51;101529.76;128939;1260;116467;-60
2023/11/22 12:23:29;;;;;;;22.70;13.90;;;;;;;1.33;83.09;101522.21;129335;1265;114749;-59
2023/11/22 12:26:33;;;;;;;26.60;15.50;;;;;;;1.35;82.82;101532.27;129467;1263;114710;-59
2023/11/22 12:29:37;;;;;;;22.80;14.80;;;;;;;1.37;82.84;101531.41;129438;1265;114825;-60
2023/11/22 12:32:40;;;;;;;22.20;14.70;;;;;;;1.44;82.98;101533.23;129493;1265;115250;-59
2023/11/22 12:35:44;;;;;;;23.80;16.10;;;;;;;1.53;83.54;101534.17;129407;1264;114825;-59
2023/11/22 12:38:47;;;;;;;25.50;14.90;;;;;;;1.63;83.84;101527.90;129500;1262;114908;-59
2023/11/22 12:41:52;;;;;;;16.10;12.50;;;;;;;1.70;83.74;101528.83;129431;1265;114767;-59
2023/11/22 12:44:54;;;;;;;20.00;12.40;;;;;;;1.74;83.04;101528.15;129469;1264;114718;-59
2023/11/22 12:48:00;;;;;;;19.40;13.40;;;;;;;1.83;83.47;101526.63;129457;1265;114751;-59
2023/11/22 12:51:02;;;;;;;19.20;13.00;;;;;;;1.91;83.68;101528.25;129381;1265;130270;-59
2023/11/22 12:54:04;;;;;;;19.90;13.90;;;;;;;1.95;83.39;101528.64;129473;1265;114748;-60
2023/11/22 12:57:12;;;;;;;24.70;15.00;;;;;;;2.00;83.66;101520.56;129501;1264;115363;-59
2023/11/22 13:00:16;;;;;;;18.00;12.80;;;;;;;1.99;82.93;101519.85;129311;1268;114816;-60
2023/11/22 13:03:17;;;;;;;19.30;12.70;;;;;;;1.84;81.43;101522.40;129498;1259;114831;-58
2023/11/22 13:06:20;;;;;;;21.30;14.10;;;;;;;1.70;81.91;101530.23;129354;1265;115400;-59
2023/11/22 13:09:22;;;;;;;19.10;12.50;;;;;;;1.61;82.08;101534.05;129500;1260;115214;-59
2023/11/22 13:12:24;;;;;;;15.10;12.80;;;;;;;1.54;82.17;101534.53;129262;1259;115219;-59
2023/11/22 13:15:26;;;;;;;23.90;14.30;;;;;;;1.49;82.72;101533.60;129427;1263;115216;-59
2023/11/22 13:18:28;;;;;;;22.00;13.80;;;;;;;1.46;82.97;101537.98;129489;1263;114967;-59
2023/11/22 13:21:31;;;;;;;27.80;15.30;;;;;;;1.40;82.89;101538.80;129459;1263;114713;-59
2023/11/22 13:24:33;;;;;;;27.60;16.30;;;;;;;1.35;83.39;101535.77;129382;1282;114796;-60
2023/11/22 13:27:38;;;;;;;27.50;14.40;;;;;;;1.33;83.49;101531.73;129469;1259;114768;-59
2023/11/22 13:30:40;;;;;;;;;;;;;;;1.31;83.74;101533.48;129494;1259;114719;-59
2023/11/22 13:33:43;;;;;;;35.00;18.40;;;;;;;1.29;83.56;101531.33;129478;1259;114717;-59
2023/11/22 13:36:45;;;;;;;26.60;16.40;;;;;;;1.27;83.54;101525.16;129520;1260;114741;-59